createdAt,value
2022-11-25T00:05:02.660Z,4.59
2022-11-25T00:10:08.202Z,4.63
2022-11-25T00:15:12.958Z,4.56
2022-11-25T00:20:16.679Z,4.52
2022-11-25T00:25:20.061Z,4.57
2022-11-25T00:30:24.839Z,4.45
2022-11-25T00:35:28.270Z,4.58
2022-11-25T00:40:31.693Z,4.52
2022-11-25T00:45:36.574Z,4.43
2022-11-25T00:50:39.993Z,4.50
2022-11-25T00:56:00.751Z,4.43
2022-11-25T01:01:05.927Z,4.32
2022-11-25T01:06:11.183Z,4.30
2022-11-25T01:11:17.407Z,4.36
2022-11-25T01:16:22.568Z,4.48
2022-11-25T01:21:27.997Z,4.48
2022-11-25T01:26:31.461Z,4.31
2022-11-25T01:31:38.284Z,4.45
2022-11-25T01:36:41.927Z,4.33
2022-11-25T01:41:45.720Z,4.43
2022-11-25T01:47:04.836Z,4.50
2022-11-25T01:52:14.911Z,4.63
2022-11-25T01:57:25.821Z,4.45
2022-11-25T02:02:31.785Z,4.59
2022-11-25T02:07:38.817Z,4.58
2022-11-25T02:12:44.547Z,4.63
2022-11-25T02:17:49.411Z,4.63
2022-11-25T02:23:01.523Z,4.69
2022-11-25T02:28:08.876Z,4.65
2022-11-25T02:33:14.748Z,4.79
2022-11-25T02:38:23.636Z,4.87
2022-11-25T02:43:29.488Z,5.02
2022-11-25T02:49:06.773Z,4.97
2022-11-25T02:53:59.346Z,5.12
2022-11-25T02:59:05.720Z,5.06
2022-11-25T03:04:09.162Z,5.09
2022-11-25T03:09:12.654Z,5.14
2022-11-25T03:14:18.101Z,5.18
2022-11-25T03:19:21.536Z,5.17
2022-11-25T03:24:24.947Z,5.19
2022-11-25T03:29:29.847Z,5.22
2022-11-25T03:34:34.296Z,5.19
2022-11-25T03:39:38.974Z,5.27
2022-11-25T03:44:45.305Z,5.41
2022-11-25T03:49:49.051Z,5.42
2022-11-25T03:54:53.126Z,5.39
2022-11-25T04:00:00.272Z,5.37
2022-11-25T04:05:05.619Z,5.36
2022-11-25T04:10:10.624Z,5.46
2022-11-25T04:15:16.584Z,5.48
2022-11-25T04:20:21.113Z,5.49
2022-11-25T04:25:32.069Z,5.48
2022-11-25T04:30:38.232Z,5.43
2022-11-25T04:35:42.142Z,5.49
2022-11-25T04:40:47.077Z,5.47
2022-11-25T04:51:22.081Z,5.41
2022-11-25T04:56:29.545Z,5.45
2022-11-25T05:01:35.052Z,5.43
2022-11-25T05:06:54.145Z,5.55
2022-11-25T05:11:58.832Z,5.41
2022-11-25T05:17:03.971Z,5.34
2022-11-25T05:22:11.042Z,5.33
2022-11-25T05:27:15.166Z,5.41
2022-11-25T05:32:20.474Z,5.44
2022-11-25T05:37:24.708Z,5.42
2022-11-25T05:42:35.873Z,5.44
2022-11-25T05:47:42.842Z,5.42
2022-11-25T05:52:47.753Z,5.45
2022-11-25T05:57:51.241Z,5.47
2022-11-25T06:02:57.031Z,5.52
2022-11-25T06:08:00.564Z,5.47
2022-11-25T06:13:04.651Z,5.46
2022-11-25T06:18:09.671Z,5.46
2022-11-25T06:23:14.409Z,5.42
2022-11-25T06:28:17.989Z,5.47
2022-11-25T06:33:26.658Z,5.50
2022-11-25T06:38:31.387Z,5.47
2022-11-25T06:43:34.879Z,5.53
2022-11-25T06:48:39.726Z,5.46
2022-11-25T06:53:44.126Z,5.55
2022-11-25T06:58:48.714Z,5.82
2022-11-25T07:03:56.012Z,6.13
2022-11-25T07:08:59.719Z,5.77
2022-11-25T07:14:05.572Z,5.76
2022-11-25T07:19:12.693Z,6.00
2022-11-25T07:24:17.355Z,5.81
2022-11-25T07:29:51.678Z,5.62
2022-11-25T07:34:46.088Z,5.80
2022-11-25T07:39:49.455Z,5.63
2022-11-25T07:44:52.868Z,5.59
2022-11-25T07:50:23.618Z,5.61
2022-11-25T07:55:27.002Z,5.69
2022-11-25T08:00:30.444Z,5.77
2022-11-25T08:05:35.724Z,5.92
2022-11-25T08:10:41.303Z,5.97
2022-11-25T08:15:44.842Z,6.51
2022-11-25T08:20:49.633Z,6.34
2022-11-25T08:25:53.118Z,6.22
2022-11-25T08:31:03.411Z,6.12
2022-11-25T08:36:09.697Z,6.35
2022-11-25T08:41:14.589Z,6.19
2022-11-25T08:46:21.405Z,6.05
2022-11-25T08:51:28.885Z,5.95
2022-11-25T08:56:32.439Z,5.86
2022-11-25T09:01:35.963Z,5.94
2022-11-25T09:06:41.040Z,5.93
2022-11-25T09:11:44.473Z,5.90
2022-11-25T09:16:47.904Z,5.97
2022-11-25T09:21:52.663Z,5.93
2022-11-25T09:26:56.138Z,6.07
2022-11-25T09:31:59.742Z,6.74
2022-11-25T09:37:04.599Z,7.08
2022-11-25T09:42:43.547Z,6.84
2022-11-25T09:47:57.818Z,7.47
2022-11-25T09:53:12.299Z,7.76
2022-11-25T09:58:27.098Z,7.99
2022-11-25T10:03:39.077Z,7.57
2022-11-25T10:08:46.469Z,7.53
2022-11-25T10:13:56.054Z,7.75
2022-11-25T10:19:02.909Z,7.45
2022-11-25T10:24:14.566Z,7.17
2022-11-25T10:29:27.020Z,6.83
2022-11-25T10:34:38.118Z,7.05
2022-11-25T10:39:43.065Z,6.73
2022-11-25T10:44:46.437Z,6.54
2022-11-25T10:50:04.942Z,6.65
2022-11-25T10:55:15.550Z,6.76
2022-11-25T11:00:31.547Z,6.65
2022-11-25T11:05:35.129Z,6.37
2022-11-25T11:10:40.366Z,6.22
2022-11-25T11:15:48.059Z,6.19
2022-11-25T11:20:53.663Z,6.17
2022-11-25T11:26:01.853Z,6.13
2022-11-25T11:31:08.346Z,6.14
2022-11-25T11:36:27.069Z,6.24
2022-11-25T11:41:40.881Z,6.33
2022-11-25T11:47:03.207Z,6.36
2022-11-25T11:52:12.446Z,6.34
2022-11-25T11:57:30.225Z,6.34
2022-11-25T12:02:45.663Z,6.34
2022-11-25T12:08:03.131Z,6.22
2022-11-25T12:13:17.384Z,6.33
2022-11-25T12:18:33.927Z,6.23
2022-11-25T12:23:46.158Z,6.19
2022-11-25T12:28:56.385Z,6.07
2022-11-25T12:34:05.513Z,6.12
2022-11-25T12:39:20.161Z,5.89
2022-11-25T12:44:30.712Z,5.93
2022-11-25T12:49:43.954Z,6.04
2022-11-25T12:55:12.223Z,6.00
2022-11-25T13:06:18.435Z,6.04
2022-11-25T13:11:50.608Z,6.09
2022-11-25T13:16:57.734Z,6.16
2022-11-25T13:22:04.433Z,6.09
2022-11-25T13:27:30.575Z,6.13
2022-11-25T13:32:43.362Z,6.06
2022-11-25T13:37:46.818Z,5.97
2022-11-25T13:42:51.699Z,5.91
2022-11-25T13:48:05.082Z,5.94
2022-11-25T13:53:21.650Z,5.79
2022-11-25T13:58:26.948Z,5.62
2022-11-25T14:03:56.413Z,5.53
2022-11-25T14:09:05.386Z,5.52
2022-11-25T14:14:35.552Z,5.46
2022-11-25T14:20:05.418Z,5.56
2022-11-25T14:25:20.544Z,5.43
2022-11-25T14:30:24.703Z,5.53
2022-11-25T14:35:43.490Z,5.50
2022-11-25T14:40:55.045Z,5.49
2022-11-25T14:46:12.066Z,5.62
2022-11-25T14:51:18.681Z,5.67
2022-11-25T14:56:29.946Z,5.55
2022-11-25T15:01:35.919Z,5.49
2022-11-25T15:06:42.764Z,5.51
2022-11-25T15:11:46.678Z,5.45
2022-11-25T15:16:50.327Z,5.53
2022-11-25T15:22:22.604Z,5.54
2022-11-25T15:27:26.344Z,5.47
2022-11-25T15:32:34.003Z,5.43
2022-11-25T15:37:38.828Z,5.44
2022-11-25T15:42:43.862Z,5.44
2022-11-25T15:47:47.486Z,5.42
2022-11-25T15:52:56.449Z,5.42
2022-11-25T15:58:06.154Z,5.40
2022-11-25T16:03:21.103Z,5.33
2022-11-25T16:08:35.654Z,5.41
2022-11-25T16:13:40.548Z,5.34
2022-11-25T16:18:50.058Z,5.33
2022-11-25T16:23:58.724Z,5.31
2022-11-25T16:29:09.465Z,5.19
2022-11-25T16:34:15.712Z,5.32
2022-11-25T16:39:20.956Z,5.21
2022-11-25T16:44:26.309Z,5.21
2022-11-25T16:49:32.000Z,5.26
2022-11-25T16:54:37.837Z,5.26
2022-11-25T16:59:44.644Z,5.28
2022-11-25T17:04:49.001Z,5.28
2022-11-25T17:09:53.856Z,5.24
2022-11-25T17:14:59.676Z,5.27
2022-11-25T17:20:03.298Z,5.32
2022-11-25T17:25:09.335Z,5.22
2022-11-25T17:30:18.877Z,5.31
2022-11-25T17:35:22.721Z,5.25
2022-11-25T17:40:27.719Z,5.24
2022-11-25T17:45:31.722Z,5.24
2022-11-25T17:50:36.254Z,5.27
2022-11-25T17:55:43.468Z,5.22
2022-11-25T18:00:46.887Z,5.32
2022-11-25T18:05:50.288Z,5.27
2022-11-25T18:10:55.114Z,5.25
2022-11-25T18:15:58.583Z,5.33
2022-11-25T18:21:02.129Z,5.38
2022-11-25T18:26:07.357Z,5.48
2022-11-25T18:31:12.949Z,5.56
2022-11-25T18:36:16.659Z,5.61
2022-11-25T18:41:23.038Z,5.63
2022-11-25T18:46:26.826Z,5.65
2022-11-25T18:51:30.295Z,5.61
2022-11-25T18:56:36.100Z,5.59
2022-11-25T19:01:39.634Z,5.57
2022-11-25T19:06:43.559Z,5.57
2022-11-25T19:11:52.447Z,5.58
2022-11-25T19:16:56.355Z,5.56
2022-11-25T19:22:01.611Z,5.49
2022-11-25T19:27:06.607Z,5.55
2022-11-25T19:32:20.303Z,5.44
2022-11-25T19:37:24.318Z,5.48
2022-11-25T19:42:31.800Z,5.62
2022-11-25T19:47:35.358Z,5.46
2022-11-25T19:52:40.069Z,5.44
2022-11-25T19:57:44.970Z,5.36
2022-11-25T20:02:50.603Z,5.38
2022-11-25T20:07:54.096Z,5.40
2022-11-25T20:12:59.749Z,5.36
2022-11-25T20:18:03.180Z,5.24
2022-11-25T20:23:09.865Z,5.26
2022-11-25T20:28:18.517Z,5.33
2022-11-25T20:33:24.669Z,5.27
2022-11-25T20:38:31.316Z,5.26
2022-11-25T20:43:39.029Z,5.17
2022-11-25T20:48:42.610Z,5.21
2022-11-25T20:53:48.506Z,5.10
2022-11-25T20:58:53.660Z,5.05
2022-11-25T21:03:57.069Z,4.95
2022-11-25T21:09:02.610Z,5.10
2022-11-25T21:14:14.150Z,4.91
2022-11-25T21:19:17.632Z,4.80
2022-11-25T21:24:31.739Z,4.88
2022-11-25T21:29:36.797Z,4.88
2022-11-25T21:34:40.500Z,4.74
2022-11-25T21:39:44.098Z,4.70
2022-11-25T21:44:51.164Z,4.70
2022-11-25T21:49:54.710Z,4.69
2022-11-25T21:54:58.120Z,4.74
2022-11-25T22:00:03.018Z,4.69
2022-11-25T22:05:15.799Z,4.78
2022-11-25T22:10:19.578Z,4.67
2022-11-25T22:15:25.135Z,4.69
2022-11-25T22:20:30.992Z,4.52
2022-11-25T22:25:34.490Z,4.40
2022-11-25T22:30:39.340Z,4.36
2022-11-25T22:35:42.967Z,4.35
2022-11-25T22:40:50.898Z,4.43
2022-11-25T22:45:56.784Z,4.42
2022-11-25T22:51:00.173Z,4.45
2022-11-25T22:56:03.496Z,4.42
2022-11-25T23:01:14.418Z,4.41
2022-11-25T23:06:17.878Z,4.19
2022-11-25T23:11:21.986Z,4.21
2022-11-25T23:16:26.797Z,4.38
2022-11-25T23:21:30.360Z,4.24
2022-11-25T23:26:35.142Z,4.26
2022-11-25T23:31:41.133Z,4.29
2022-11-25T23:36:47.653Z,4.20
2022-11-25T23:41:51.788Z,4.13
2022-11-25T23:47:00.178Z,4.09
2022-11-25T23:52:08.041Z,4.11
2022-11-25T23:57:15.432Z,4.01
